sensor_id;sensor_type;location;lat;lon;timestamp;pressure;altitude;pressure_sealevel;temperature;humidity
18755;BME280;35061;47.664;9.166;2023-05-10T00:02:02;101065.15;;;13.04;100.00
18755;BME280;35061;47.664;9.166;2023-05-10T00:04:30;101066.45;;;13.03;100.00
18755;BME280;35061;47.664;9.166;2023-05-10T00:06:58;101066.98;;;13.01;100.00
18755;BME280;35061;47.664;9.166;2023-05-10T00:09:26;101063.77;;;12.99;100.00
18755;BME280;35061;47.664;9.166;2023-05-10T00:11:54;101066.39;;;12.97;100.00
18755;BME280;35061;47.664;9.166;2023-05-10T00:14:22;101064.00;;;12.95;100.00
18755;BME280;35061;47.664;9.166;2023-05-10T00:16:50;101059.06;;;12.96;100.00
18755;BME280;35061;47.664;9.166;2023-05-10T00:19:18;101054.62;;;12.95;100.00
18755;BME280;35061;47.664;9.166;2023-05-10T00:21:46;101060.63;;;12.97;100.00
18755;BME280;35061;47.664;9.166;2023-05-10T00:24:14;101060.87;;;12.93;100.00
18755;BME280;35061;47.664;9.166;2023-05-10T00:26:42;101060.57;;;12.91;100.00
18755;BME280;35061;47.664;9.166;2023-05-10T00:29:10;101064.76;;;12.90;100.00
18755;BME280;35061;47.664;9.166;2023-05-10T00:31:38;101068.91;;;12.89;100.00
18755;BME280;35061;47.664;9.166;2023-05-10T00:34:06;101060.50;;;12.86;100.00
18755;BME280;35061;47.664;9.166;2023-05-10T00:36:34;101059.13;;;12.81;100.00
18755;BME280;35061;47.664;9.166;2023-05-10T00:39:02;101062.23;;;12.77;100.00
18755;BME280;35061;47.664;9.166;2023-05-10T00:41:31;101062.23;;;12.77;100.00
18755;BME280;35061;47.664;9.166;2023-05-10T00:44:00;101066.12;;;12.74;100.00
18755;BME280;35061;47.664;9.166;2023-05-10T00:46:29;101061.65;;;12.73;100.00
18755;BME280;35061;47.664;9.166;2023-05-10T00:48:58;101062.43;;;12.74;100.00
18755;BME280;35061;47.664;9.166;2023-05-10T00:51:26;101061.38;;;12.71;100.00
18755;BME280;35061;47.664;9.166;2023-05-10T00:53:54;101057.43;;;12.68;100.00
18755;BME280;35061;47.664;9.166;2023-05-10T00:56:24;101063.19;;;12.68;100.00
18755;BME280;35061;47.664;9.166;2023-05-10T00:58:52;101066.81;;;12.69;100.00
18755;BME280;35061;47.664;9.166;2023-05-10T01:01:21;101061.32;;;12.65;100.00
18755;BME280;35061;47.664;9.166;2023-05-10T01:03:49;101063.58;;;12.61;100.00
18755;BME280;35061;47.664;9.166;2023-05-10T01:06:17;101072.73;;;12.60;100.00
18755;BME280;35061;47.664;9.166;2023-05-10T01:08:45;101082.64;;;12.59;100.00
18755;BME280;35061;47.664;9.166;2023-05-10T01:11:13;101082.64;;;12.59;100.00
18755;BME280;35061;47.664;9.166;2023-05-10T01:13:43;101087.28;;;12.56;100.00
18755;BME280;35061;47.664;9.166;2023-05-10T01:16:13;101087.77;;;12.54;100.00
18755;BME280;35061;47.664;9.166;2023-05-10T01:18:41;101094.84;;;12.53;100.00
18755;BME280;35061;47.664;9.166;2023-05-10T01:21:43;101092.45;;;12.52;100.00
18755;BME280;35061;47.664;9.166;2023-05-10T01:30:01;101104.95;;;12.49;100.00
18755;BME280;35061;47.664;9.166;2023-05-10T01:35:41;101107.82;;;12.49;100.00
18755;BME280;35061;47.664;9.166;2023-05-10T01:41:01;101109.13;;;12.48;100.00
18755;BME280;35061;47.664;9.166;2023-05-10T01:43:38;101111.19;;;12.47;100.00
18755;BME280;35061;47.664;9.166;2023-05-10T01:46:10;101116.16;;;12.47;100.00
18755;BME280;35061;47.664;9.166;2023-05-10T01:48:44;101120.31;;;12.46;100.00
18755;BME280;35061;47.664;9.166;2023-05-10T01:51:23;101124.50;;;12.45;99.71
18755;BME280;35061;47.664;9.166;2023-05-10T01:53:59;101120.61;;;12.48;99.82
18755;BME280;35061;47.664;9.166;2023-05-10T01:56:30;101123.48;;;12.48;99.79
18755;BME280;35061;47.664;9.166;2023-05-10T01:59:00;101127.93;;;12.49;99.77
18755;BME280;35061;47.664;9.166;2023-05-10T02:01:31;101125.05;;;12.49;99.75
18755;BME280;35061;47.664;9.166;2023-05-10T02:04:01;101133.95;;;12.51;99.51
18755;BME280;35061;47.664;9.166;2023-05-10T02:06:31;101141.27;;;12.52;99.32
18755;BME280;35061;47.664;9.166;2023-05-10T02:09:01;101147.03;;;12.52;99.13
18755;BME280;35061;47.664;9.166;2023-05-10T02:11:30;101142.09;;;12.52;99.04
18755;BME280;35061;47.664;9.166;2023-05-10T02:13:58;101143.37;;;12.51;98.94
18755;BME280;35061;47.664;9.166;2023-05-10T02:16:28;101142.88;;;12.53;99.05
18755;BME280;35061;47.664;9.166;2023-05-10T02:18:59;101142.38;;;12.54;98.84
18755;BME280;35061;47.664;9.166;2023-05-10T02:21:30;101138.92;;;12.50;98.48
18755;BME280;35061;47.664;9.166;2023-05-10T02:23:59;101142.58;;;12.51;98.77
18755;BME280;35061;47.664;9.166;2023-05-10T02:26:31;101141.27;;;12.52;98.66
18755;BME280;35061;47.664;9.166;2023-05-10T02:29:01;101147.03;;;12.52;98.11
18755;BME280;35061;47.664;9.166;2023-05-10T02:31:32;101144.15;;;12.52;98.24
18755;BME280;35061;47.664;9.166;2023-05-10T02:34:02;101140.29;;;12.55;98.13
18755;BME280;35061;47.664;9.166;2023-05-10T02:36:31;101146.54;;;12.53;97.59
18755;BME280;35061;47.664;9.166;2023-05-10T02:39:01;101147.84;;;12.52;97.91
18755;BME280;35061;47.664;9.166;2023-05-10T02:41:30;101151.48;;;12.53;97.71
18755;BME280;35061;47.664;9.166;2023-05-10T02:44:01;101153.57;;;12.52;97.37
18755;BME280;35061;47.664;9.166;2023-05-10T02:46:30;101147.55;;;12.50;97.05
18755;BME280;35061;47.664;9.166;2023-05-10T02:48:58;101152.00;;;12.51;97.17
18755;BME280;35061;47.664;9.166;2023-05-10T02:51:30;101149.91;;;12.52;97.32
18755;BME280;35061;47.664;9.166;2023-05-10T02:54:06;101150.20;;;12.54;97.22
18755;BME280;35061;47.664;9.166;2023-05-10T02:56:36;101153.86;;;12.54;97.29
18755;BME280;35061;47.664;9.166;2023-05-10T02:59:08;101145.72;;;12.53;96.71
18755;BME280;35061;47.664;9.166;2023-05-10T03:01:36;101151.48;;;12.53;97.03
18755;BME280;35061;47.664;9.166;2023-05-10T03:04:04;101144.97;;;12.52;97.10
18755;BME280;35061;47.664;9.166;2023-05-10T03:06:32;101155.95;;;12.54;97.09
18755;BME280;35061;47.664;9.166;2023-05-10T03:09:01;101149.71;;;12.55;97.12
18755;BME280;35061;47.664;9.166;2023-05-10T03:11:44;101158.84;;;12.54;97.25
18755;BME280;35061;47.664;9.166;2023-05-10T03:17:08;101154.58;;;12.49;97.71
18755;BME280;35061;47.664;9.166;2023-05-10T03:19:55;101147.75;;;12.47;97.58
18755;BME280;35061;47.664;9.166;2023-05-10T03:22:31;101160.01;;;12.47;97.50
18755;BME280;35061;47.664;9.166;2023-05-10T03:25:00;101151.41;;;12.47;97.83
18755;BME280;35061;47.664;9.166;2023-05-10T03:27:32;101155.56;;;12.46;97.50
18755;BME280;35061;47.664;9.166;2023-05-10T03:30:02;101149.80;;;12.46;97.66
18755;BME280;35061;47.664;9.166;2023-05-10T03:32:30;101155.89;;;12.48;97.80
18755;BME280;35061;47.664;9.166;2023-05-10T03:35:00;101154.58;;;12.49;97.78
18755;BME280;35061;47.664;9.166;2023-05-10T03:37:29;101150.13;;;12.48;97.41
18755;BME280;35061;47.664;9.166;2023-05-10T03:39:57;101154.58;;;12.49;97.38
18755;BME280;35061;47.664;9.166;2023-05-10T03:42:25;101157.95;;;12.48;97.03
18755;BME280;35061;47.664;9.166;2023-05-10T03:44:53;101155.37;;;12.50;97.20
18755;BME280;35061;47.664;9.166;2023-05-10T03:47:22;101149.12;;;12.51;97.18
18755;BME280;35061;47.664;9.166;2023-05-10T03:49:50;101155.63;;;12.52;96.98
18755;BME280;35061;47.664;9.166;2023-05-10T03:52:17;101151.18;;;12.51;96.93
18755;BME280;35061;47.664;9.166;2023-05-10T03:54:45;101156.74;;;12.54;96.92
18755;BME280;35061;47.664;9.166;2023-05-10T03:57:13;101163.28;;;12.55;96.61
18755;BME280;35061;47.664;9.166;2023-05-10T03:59:41;101160.70;;;12.57;96.56
18755;BME280;35061;47.664;9.166;2023-05-10T04:02:09;101158.60;;;12.57;96.29
18755;BME280;35061;47.664;9.166;2023-05-10T04:04:37;101163.87;;;12.59;96.35
18755;BME280;35061;47.664;9.166;2023-05-10T04:07:05;101163.87;;;12.59;96.15
18755;BME280;35061;47.664;9.166;2023-05-10T04:09:33;101166.75;;;12.59;95.60
18755;BME280;35061;47.664;9.166;2023-05-10T04:12:01;101165.96;;;12.59;95.83
18755;BME280;35061;47.664;9.166;2023-05-10T04:14:29;101165.44;;;12.60;95.77
18755;BME280;35061;47.664;9.166;2023-05-10T04:16:57;101168.31;;;12.60;95.75
18755;BME280;35061;47.664;9.166;2023-05-10T04:19:29;101169.10;;;12.61;95.65
18755;BME280;35061;47.664;9.166;2023-05-10T04:21:58;101171.45;;;12.62;95.54
18755;BME280;35061;47.664;9.166;2023-05-10T04:24:26;101174.66;;;12.64;95.50
18755;BME280;35061;47.664;9.166;2023-05-10T04:26:54;101176.52;;;12.67;95.46
18755;BME280;35061;47.664;9.166;2023-05-10T04:29:23;101173.13;;;12.69;95.53
18755;BME280;35061;47.664;9.166;2023-05-10T04:31:51;101180.77;;;12.72;95.56
18755;BME280;35061;47.664;9.166;2023-05-10T04:34:20;101181.56;;;12.73;95.37
18755;BME280;35061;47.664;9.166;2023-05-10T04:36:48;101177.08;;;12.72;95.57
18755;BME280;35061;47.664;9.166;2023-05-10T04:39:16;101183.13;;;12.74;95.48
18755;BME280;35061;47.664;9.166;2023-05-10T04:41:44;101178.39;;;12.70;95.38
18755;BME280;35061;47.664;9.166;2023-05-10T04:44:12;101182.84;;;12.72;95.59
18755;BME280;35061;47.664;9.166;2023-05-10T04:46:41;101177.60;;;12.70;95.62
18755;BME280;35061;47.664;9.166;2023-05-10T04:49:09;101181.27;;;12.70;95.69
18755;BME280;35061;47.664;9.166;2023-05-10T04:51:37;101178.09;;;12.68;96.06
18755;BME280;35061;47.664;9.166;2023-05-10T04:54:05;101186.23;;;12.70;95.86
18755;BME280;35061;47.664;9.166;2023-05-10T04:56:33;101182.77;;;12.66;95.98
18755;BME280;35061;47.664;9.166;2023-05-10T04:59:01;101183.29;;;12.64;96.02
18755;BME280;35061;47.664;9.166;2023-05-10T05:01:29;101185.42;;;12.69;95.93
18755;BME280;35061;47.664;9.166;2023-05-10T05:03:58;101178.09;;;12.68;95.84
18755;BME280;35061;47.664;9.166;2023-05-10T05:06:26;101186.73;;;12.68;95.87
18755;BME280;35061;47.664;9.166;2023-05-10T05:08:54;101187.80;;;12.71;95.67
18755;BME280;35061;47.664;9.166;2023-05-10T05:11:22;101185.71;;;12.72;95.64
18755;BME280;35061;47.664;9.166;2023-05-10T05:13:50;101182.34;;;12.73;95.26
18755;BME280;35061;47.664;9.166;2023-05-10T05:16:19;101183.42;;;12.76;95.41
18755;BME280;35061;47.664;9.166;2023-05-10T05:18:47;101184.50;;;12.78;95.30
18755;BME280;35061;47.664;9.166;2023-05-10T05:21:15;101188.16;;;12.79;95.18
18755;BME280;35061;47.664;9.166;2023-05-10T05:23:44;101190.55;;;12.80;94.53
18755;BME280;35061;47.664;9.166;2023-05-10T05:26:12;101189.54;;;12.83;94.45
18755;BME280;35061;47.664;9.166;2023-05-10T05:28:40;101187.97;;;12.82;93.80
18755;BME280;35061;47.664;9.166;2023-05-10T05:31:08;101197.35;;;12.83;93.69
18755;BME280;35061;47.664;9.166;2023-05-10T05:33:37;101201.05;;;12.83;93.53
18755;BME280;35061;47.664;9.166;2023-05-10T05:36:06;101199.97;;;12.81;93.12
18755;BME280;35061;47.664;9.166;2023-05-10T05:38:34;101206.28;;;12.85;93.20
18755;BME280;35061;47.664;9.166;2023-05-10T05:41:01;101208.67;;;12.87;93.15
18755;BME280;35061;47.664;9.166;2023-05-10T05:43:30;101209.95;;;12.86;92.64
18755;BME280;35061;47.664;9.166;2023-05-10T05:45:58;101218.09;;;12.87;92.96
18755;BME280;35061;47.664;9.166;2023-05-10T05:48:26;101208.38;;;12.84;92.55
18755;BME280;35061;47.664;9.166;2023-05-10T05:50:55;101216.19;;;12.84;93.10
18755;BME280;35061;47.664;9.166;2023-05-10T05:53:24;101221.36;;;12.80;93.11
18755;BME280;35061;47.664;9.166;2023-05-10T05:55:56;101216.91;;;12.79;93.36
18755;BME280;35061;47.664;9.166;2023-05-10T05:58:25;101221.36;;;12.80;93.46
18755;BME280;35061;47.664;9.166;2023-05-10T06:00:53;101233.68;;;12.80;93.69
18755;BME280;35061;47.664;9.166;2023-05-10T06:03:21;101232.05;;;12.79;93.51
18755;BME280;35061;47.664;9.166;2023-05-10T06:05:49;101226.82;;;12.78;93.39
18755;BME280;35061;47.664;9.166;2023-05-10T06:08:17;101231.30;;;12.79;93.51
18755;BME280;35061;47.664;9.166;2023-05-10T06:10:45;101223.97;;;12.78;93.30
18755;BME280;35061;47.664;9.166;2023-05-10T06:13:13;101233.36;;;12.78;93.42
18755;BME280;35061;47.664;9.166;2023-05-10T06:15:41;101229.70;;;12.78;92.98
18755;BME280;35061;47.664;9.166;2023-05-10T06:18:09;101231.30;;;12.79;93.40
18755;BME280;35061;47.664;9.166;2023-05-10T06:20:37;101241.50;;;12.80;93.16
18755;BME280;35061;47.664;9.166;2023-05-10T06:23:05;101242.77;;;12.79;93.03
18755;BME280;35061;47.664;9.166;2023-05-10T06:25:33;101247.22;;;12.80;93.04
18755;BME280;35061;47.664;9.166;2023-05-10T06:28:01;101244.09;;;12.78;92.70
18755;BME280;35061;47.664;9.166;2023-05-10T06:30:29;101246.24;;;12.83;92.91
18755;BME280;35061;47.664;9.166;2023-05-10T06:32:57;101255.13;;;12.85;92.95
18755;BME280;35061;47.664;9.166;2023-05-10T06:35:25;101254.94;;;12.89;92.76
18755;BME280;35061;47.664;9.166;2023-05-10T06:37:54;101256.02;;;12.91;92.62
18755;BME280;35061;47.664;9.166;2023-05-10T06:40:22;101261.88;;;12.97;92.66
18755;BME280;35061;47.664;9.166;2023-05-10T06:42:50;101262.76;;;13.03;92.57
18755;BME280;35061;47.664;9.166;2023-05-10T06:45:18;101270.08;;;13.04;91.93
18755;BME280;35061;47.664;9.166;2023-05-10T06:47:46;101269.36;;;13.09;91.97
18755;BME280;35061;47.664;9.166;2023-05-10T06:50:14;101267.85;;;13.14;91.60
18755;BME280;35061;47.664;9.166;2023-05-10T06:52:43;101279.95;;;13.18;91.15
18755;BME280;35061;47.664;9.166;2023-05-10T06:55:11;101270.51;;;13.18;90.49
18755;BME280;35061;47.664;9.166;2023-05-10T06:57:39;101272.70;;;13.23;90.89
18755;BME280;35061;47.664;9.166;2023-05-10T07:00:08;101274.49;;;13.20;89.94
18755;BME280;35061;47.664;9.166;2023-05-10T07:02:37;101275.77;;;13.19;88.93
18755;BME280;35061;47.664;9.166;2023-05-10T07:05:05;101284.89;;;13.18;87.78
18755;BME280;35061;47.664;9.166;2023-05-10T07:07:33;101282.11;;;13.23;89.27
18755;BME280;35061;47.664;9.166;2023-05-10T07:10:02;101275.05;;;13.24;88.71
18755;BME280;35061;47.664;9.166;2023-05-10T07:12:30;101276.62;;;13.25;87.84
18755;BME280;35061;47.664;9.166;2023-05-10T07:14:58;101278.52;;;13.29;88.45
18755;BME280;35061;47.664;9.166;2023-05-10T07:17:26;101284.44;;;13.40;88.78
18755;BME280;35061;47.664;9.166;2023-05-10T07:19:54;101285.48;;;13.43;87.15
18755;BME280;35061;47.664;9.166;2023-05-10T07:22:22;101288.59;;;13.39;87.22
18755;BME280;35061;47.664;9.166;2023-05-10T07:24:50;101284.20;;;13.44;87.02
18755;BME280;35061;47.664;9.166;2023-05-10T07:27:18;101292.94;;;13.49;87.18
18755;BME280;35061;47.664;9.166;2023-05-10T07:29:46;101296.11;;;13.51;86.72
18755;BME280;35061;47.664;9.166;2023-05-10T07:32:14;101291.66;;;13.50;85.24
18755;BME280;35061;47.664;9.166;2023-05-10T07:34:42;101294.60;;;13.56;86.75
18755;BME280;35061;47.664;9.166;2023-05-10T07:37:10;101288.03;;;13.56;85.98
18755;BME280;35061;47.664;9.166;2023-05-10T07:39:38;101306.67;;;13.60;86.47
18755;BME280;35061;47.664;9.166;2023-05-10T07:42:06;101292.58;;;13.62;85.87
18755;BME280;35061;47.664;9.166;2023-05-10T07:44:33;101287.90;;;13.65;84.74
18755;BME280;35061;47.664;9.166;2023-05-10T07:47:04;101292.28;;;13.60;84.05
18755;BME280;35061;47.664;9.166;2023-05-10T07:49:32;101299.41;;;13.65;84.55
18755;BME280;35061;47.664;9.166;2023-05-10T07:52:00;101292.64;;;13.68;84.03
18755;BME280;35061;47.664;9.166;2023-05-10T07:54:28;101290.84;;;13.71;83.91
18755;BME280;35061;47.664;9.166;2023-05-10T07:56:56;101299.05;;;13.78;83.99
18755;BME280;35061;47.664;9.166;2023-05-10T07:59:24;101286.46;;;13.75;82.72
18755;BME280;35061;47.664;9.166;2023-05-10T08:01:52;101291.46;;;13.80;82.43
18755;BME280;35061;47.664;9.166;2023-05-10T08:04:20;101294.67;;;13.82;81.38
18755;BME280;35061;47.664;9.166;2023-05-10T08:06:48;101299.34;;;13.80;80.77
18755;BME280;35061;47.664;9.166;2023-05-10T08:09:16;101290.42;;;13.78;81.34
18755;BME280;35061;47.664;9.166;2023-05-10T08:11:45;101305.16;;;13.86;81.38
18755;BME280;35061;47.664;9.166;2023-05-10T08:14:13;101289.77;;;13.89;81.13
18755;BME280;35061;47.664;9.166;2023-05-10T08:16:41;101290.55;;;13.89;80.41
18755;BME280;35061;47.664;9.166;2023-05-10T08:19:09;101300.72;;;13.85;79.70
18755;BME280;35061;47.664;9.166;2023-05-10T08:21:37;101305.16;;;13.86;80.46
18755;BME280;35061;47.664;9.166;2023-05-10T08:24:05;101307.75;;;13.84;80.95
18755;BME280;35061;47.664;9.166;2023-05-10T08:26:33;101306.12;;;13.77;82.80
18755;BME280;35061;47.664;9.166;2023-05-10T08:29:01;101313.38;;;13.72;83.56
18755;BME280;35061;47.664;9.166;2023-05-10T08:31:29;101312.79;;;13.68;84.96
18755;BME280;35061;47.664;9.166;2023-05-10T08:33:57;101311.05;;;13.56;84.27
18755;BME280;35061;47.664;9.166;2023-05-10T08:36:25;101307.91;;;13.53;85.25
18755;BME280;35061;47.664;9.166;2023-05-10T08:38:54;101307.62;;;13.51;85.17
18755;BME280;35061;47.664;9.166;2023-05-10T08:41:23;101317.30;;;13.54;85.56
18755;BME280;35061;47.664;9.166;2023-05-10T08:43:53;101315.80;;;13.59;85.45
18755;BME280;35061;47.664;9.166;2023-05-10T08:46:22;101314.03;;;13.61;85.38
18755;BME280;35061;47.664;9.166;2023-05-10T08:48:51;101312.72;;;13.62;84.91
18755;BME280;35061;47.664;9.166;2023-05-10T08:51:22;101317.43;;;13.60;84.53
18755;BME280;35061;47.664;9.166;2023-05-10T08:53:54;101308.53;;;13.63;84.54
18755;BME280;35061;47.664;9.166;2023-05-10T08:56:23;101310.98;;;13.71;84.14
18755;BME280;35061;47.664;9.166;2023-05-10T08:58:51;101310.30;;;13.76;83.72
18755;BME280;35061;47.664;9.166;2023-05-10T09:01:20;101313.73;;;13.80;83.65
18755;BME280;35061;47.664;9.166;2023-05-10T09:03:49;101314.29;;;13.84;83.69
18755;BME280;35061;47.664;9.166;2023-05-10T09:06:18;101312.55;;;13.92;83.67
18755;BME280;35061;47.664;9.166;2023-05-10T09:08:46;101318.97;;;14.02;83.83
18755;BME280;35061;47.664;9.166;2023-05-10T09:11:16;101308.73;;;14.01;83.57
18755;BME280;35061;47.664;9.166;2023-05-10T09:13:44;101304.58;;;14.02;83.26
18755;BME280;35061;47.664;9.166;2023-05-10T09:16:12;101314.26;;;14.05;83.22
18755;BME280;35061;47.664;9.166;2023-05-10T09:18:45;101311.77;;;14.13;82.72
18755;BME280;35061;47.664;9.166;2023-05-10T09:21:13;101314.45;;;14.22;83.62
18755;BME280;35061;47.664;9.166;2023-05-10T09:23:45;101316.68;;;14.33;83.96
18755;BME280;35061;47.664;9.166;2023-05-10T09:26:14;101309.38;;;14.37;80.70
18755;BME280;35061;47.664;9.166;2023-05-10T09:28:53;101316.84;;;14.50;82.51
18755;BME280;35061;47.664;9.166;2023-05-10T09:31:22;101309.77;;;14.51;81.25
18755;BME280;35061;47.664;9.166;2023-05-10T09:33:50;101305.63;;;14.58;80.84
18755;BME280;35061;47.664;9.166;2023-05-10T09:36:19;101305.46;;;14.67;80.85
18755;BME280;35061;47.664;9.166;2023-05-10T09:38:51;101308.17;;;14.76;80.56
18755;BME280;35061;47.664;9.166;2023-05-10T09:41:22;101312.13;;;14.79;78.59
18755;BME280;35061;47.664;9.166;2023-05-10T09:43:50;101311.97;;;14.88;79.53
18755;BME280;35061;47.664;9.166;2023-05-10T09:46:23;101313.54;;;14.89;77.50
18755;BME280;35061;47.664;9.166;2023-05-10T09:48:51;101304.38;;;14.97;77.49
18755;BME280;35061;47.664;9.166;2023-05-10T09:51:23;101306.51;;;14.96;76.39
18755;BME280;35061;47.664;9.166;2023-05-10T09:54:12;101303.11;;;14.98;75.76
18755;BME280;35061;47.664;9.166;2023-05-10T09:56:41;101304.97;;;15.01;73.53
18755;BME280;35061;47.664;9.166;2023-05-10T09:59:11;101309.91;;;15.00;71.41
18755;BME280;35061;47.664;9.166;2023-05-10T10:01:39;101320.14;;;15.01;71.56
18755;BME280;35061;47.664;9.166;2023-05-10T10:04:09;101307.26;;;14.97;69.83
18755;BME280;35061;47.664;9.166;2023-05-10T10:06:40;101307.26;;;14.97;70.28
18755;BME280;35061;47.664;9.166;2023-05-10T10:09:09;101313.11;;;15.08;71.61
18755;BME280;35061;47.664;9.166;2023-05-10T10:11:38;101305.52;;;15.11;70.28
18755;BME280;35061;47.664;9.166;2023-05-10T10:14:06;101306.38;;;15.17;70.94
18755;BME280;35061;47.664;9.166;2023-05-10T10:16:34;101317.10;;;15.16;69.05
18755;BME280;35061;47.664;9.166;2023-05-10T10:19:11;101304.61;;;15.25;69.51
18755;BME280;35061;47.664;9.166;2023-05-10T10:21:40;101313.77;;;15.24;67.62
18755;BME280;35061;47.664;9.166;2023-05-10T10:24:08;101312.69;;;15.21;64.70
18755;BME280;35061;47.664;9.166;2023-05-10T10:26:36;101312.69;;;15.21;65.07
18755;BME280;35061;47.664;9.166;2023-05-10T10:29:20;101318.73;;;15.23;63.88
18755;BME280;35061;47.664;9.166;2023-05-10T10:34:58;101312.03;;;15.43;66.39
18755;BME280;35061;47.664;9.166;2023-05-10T10:37:43;101311.28;;;15.54;66.06
18755;BME280;35061;47.664;9.166;2023-05-10T10:40:32;101300.55;;;15.55;65.75
18755;BME280;35061;47.664;9.166;2023-05-10T10:43:23;101313.47;;;15.65;65.19
18755;BME280;35061;47.664;9.166;2023-05-10T10:46:14;101310.30;;;15.63;65.23
18755;BME280;35061;47.664;9.166;2023-05-10T10:49:10;101305.30;;;15.58;63.28
18755;BME280;35061;47.664;9.166;2023-05-10T10:51:39;101298.43;;;15.49;61.64
18755;BME280;35061;47.664;9.166;2023-05-10T10:54:11;101314.68;;;15.47;62.21
18755;BME280;35061;47.664;9.166;2023-05-10T10:56:39;101304.97;;;15.44;62.48
18755;BME280;35061;47.664;9.166;2023-05-10T10:59:07;101302.06;;;15.39;62.28
18755;BME280;35061;47.664;9.166;2023-05-10T11:01:35;101297.35;;;15.41;62.84
18755;BME280;35061;47.664;9.166;2023-05-10T11:06:33;101297.65;;;15.49;63.50
18755;BME280;35061;47.664;9.166;2023-05-10T11:09:06;101305.76;;;15.51;63.67
18755;BME280;35061;47.664;9.166;2023-05-10T11:11:55;101306.84;;;15.53;63.34
18755;BME280;35061;47.664;9.166;2023-05-10T11:14:23;101293.49;;;15.61;63.50
18755;BME280;35061;47.664;9.166;2023-05-10T11:16:51;101296.17;;;15.71;64.33
18755;BME280;35061;47.664;9.166;2023-05-10T11:19:19;101295.39;;;15.76;63.72
18755;BME280;35061;47.664;9.166;2023-05-10T11:24:39;101299.34;;;15.79;61.48
18755;BME280;35061;47.664;9.166;2023-05-10T11:27:07;101300.39;;;15.75;61.94
18755;BME280;35061;47.664;9.166;2023-05-10T11:29:35;101307.20;;;15.72;60.43
18755;BME280;35061;47.664;9.166;2023-05-10T11:32:05;101303.01;;;15.73;61.31
18755;BME280;35061;47.664;9.166;2023-05-10T11:34:35;101300.06;;;15.62;61.00
18755;BME280;35061;47.664;9.166;2023-05-10T11:37:03;101309.74;;;15.59;61.49
18755;BME280;35061;47.664;9.166;2023-05-10T11:39:31;101308.41;;;15.54;60.97
18755;BME280;35061;47.664;9.166;2023-05-10T11:42:01;101309.22;;;15.55;61.76
18755;BME280;35061;47.664;9.166;2023-05-10T11:44:30;101318.90;;;15.52;61.09
18755;BME280;35061;47.664;9.166;2023-05-10T11:47:02;101317.59;;;15.53;61.63
18755;BME280;35061;47.664;9.166;2023-05-10T11:49:30;101327.30;;;15.55;61.93
18755;BME280;35061;47.664;9.166;2023-05-10T11:52:06;101313.18;;;15.57;61.96
18755;BME280;35061;47.664;9.166;2023-05-10T11:54:34;101310.56;;;15.59;61.19
18755;BME280;35061;47.664;9.166;2023-05-10T11:57:03;101322.63;;;15.63;62.05
18755;BME280;35061;47.664;9.166;2023-05-10T11:59:31;101310.01;;;15.61;61.46
18755;BME280;35061;47.664;9.166;2023-05-10T12:01:59;101302.95;;;15.56;61.11
18755;BME280;35061;47.664;9.166;2023-05-10T12:04:28;101317.88;;;15.60;60.77
18755;BME280;35061;47.664;9.166;2023-05-10T12:06:57;101311.31;;;15.60;60.75
18755;BME280;35061;47.664;9.166;2023-05-10T12:09:25;101313.70;;;15.61;61.26
18755;BME280;35061;47.664;9.166;2023-05-10T12:12:09;101313.18;;;15.63;60.97
18755;BME280;35061;47.664;9.166;2023-05-10T12:14:37;101300.36;;;15.70;61.70
18755;BME280;35061;47.664;9.166;2023-05-10T12:17:05;101310.89;;;15.79;61.84
18755;BME280;35061;47.664;9.166;2023-05-10T12:19:37;101303.53;;;15.77;60.59
18755;BME280;35061;47.664;9.166;2023-05-10T12:22:06;101307.23;;;15.78;60.82
18755;BME280;35061;47.664;9.166;2023-05-10T12:24:35;101305.36;;;15.81;60.59
18755;BME280;35061;47.664;9.166;2023-05-10T12:27:09;101301.96;;;15.82;60.79
18755;BME280;35061;47.664;9.166;2023-05-10T12:29:41;101307.23;;;15.84;57.39
18755;BME280;35061;47.664;9.166;2023-05-10T12:32:12;101301.44;;;15.78;56.33
18755;BME280;35061;47.664;9.166;2023-05-10T12:34:40;101313.80;;;15.84;57.47
18755;BME280;35061;47.664;9.166;2023-05-10T12:37:08;101305.36;;;15.81;54.58
18755;BME280;35061;47.664;9.166;2023-05-10T12:39:43;101311.94;;;15.81;54.26
18755;BME280;35061;47.664;9.166;2023-05-10T12:42:12;101306.96;;;15.87;54.07
18755;BME280;35061;47.664;9.166;2023-05-10T12:44:40;101305.98;;;15.90;54.11
18755;BME280;35061;47.664;9.166;2023-05-10T12:47:08;101312.52;;;15.91;54.03
18755;BME280;35061;47.664;9.166;2023-05-10T12:49:36;101312.52;;;15.91;53.68
18755;BME280;35061;47.664;9.166;2023-05-10T12:52:04;101311.77;;;15.96;54.70
18755;BME280;35061;47.664;9.166;2023-05-10T12:54:32;101313.11;;;16.07;55.08
18755;BME280;35061;47.664;9.166;2023-05-10T12:57:00;101312.33;;;16.12;54.91
18755;BME280;35061;47.664;9.166;2023-05-10T12:59:28;101310.50;;;16.09;53.92
18755;BME280;35061;47.664;9.166;2023-05-10T13:01:57;101307.62;;;16.14;54.37
18755;BME280;35061;47.664;9.166;2023-05-10T13:04:25;101310.01;;;16.16;54.91
18755;BME280;35061;47.664;9.166;2023-05-10T13:06:53;101305.79;;;16.17;53.85
18755;BME280;35061;47.664;9.166;2023-05-10T13:09:24;101310.01;;;16.16;54.39
18755;BME280;35061;47.664;9.166;2023-05-10T13:11:52;101313.15;;;16.18;54.57
18755;BME280;35061;47.664;9.166;2023-05-10T13:14:24;101313.67;;;16.22;54.15
18755;BME280;35061;47.664;9.166;2023-05-10T13:16:52;101307.88;;;16.22;54.01
18755;BME280;35061;47.664;9.166;2023-05-10T13:19:20;101310.01;;;16.22;52.98
18755;BME280;35061;47.664;9.166;2023-05-10T13:21:49;101302.91;;;16.17;52.31
18755;BME280;35061;47.664;9.166;2023-05-10T13:24:17;101305.00;;;16.16;53.20